Time;durP1;ratioP1;P1;durP2;ratioP2;P2;SDS_P1;SDS_P2;PMS_P1;PMS_P2;Temp;Humidity;BMP_temperature;BMP_pressure;BME280_temperature;BME280_humidity;BME280_pressure;Samples;Min_cycle;Max_cycle;Signal;HPM_P1;HPM_P2
2022/01/26 00:07:36;;;;;;;44.67;21.38;;;;;;;;;;7376258;19;20173;-75
2022/01/26 00:10:09;;;;;;;43.08;22.30;;;;;;;;;;7374961;19;20896;-75
2022/01/26 00:12:40;;;;;;;47.72;22.17;;;;;;;;;;7370251;19;20143;-75
2022/01/26 00:15:11;;;;;;;54.40;24.80;;;;;;;;;;7376750;19;20136;-75
2022/01/26 00:17:43;;;;;;;40.92;21.90;;;;;;;;;;7369869;19;20223;-74
2022/01/26 00:20:19;;;;;;;37.42;20.75;;;;;;;;;;7367708;19;20170;-74
2022/01/26 00:23:08;;;;;;;43.55;21.52;;;;;;;;;;7372952;19;20583;-74
2022/01/26 00:25:57;;;;;;;38.60;19.75;;;;;;;;;;7368248;19;20135;-75
2022/01/26 00:28:46;;;;;;;36.67;19.88;;;;;;;;;;7373126;19;20130;-73
2022/01/26 00:39:45;;;;;;;47.55;22.85;;;;;;;;;;7373449;19;20139;-75
2022/01/26 00:42:18;;;;;;;46.22;23.50;;;;;;;;;;7378031;19;20149;-74
2022/01/26 00:44:50;;;;;;;42.03;21.27;;;;;;;;;;7372402;19;20181;-74
2022/01/26 00:47:20;;;;;;;47.55;22.88;;;;;;;;;;7379041;19;20128;-75
2022/01/26 00:49:52;;;;;;;47.67;21.60;;;;;;;;;;7364880;19;20611;-74
2022/01/26 00:52:29;;;;;;;54.30;24.73;;;;;;;;;;7373650;19;20490;-75
2022/01/26 00:54:59;;;;;;;48.58;22.65;;;;;;;;;;7376643;19;20489;-75
2022/01/26 00:57:31;;;;;;;47.28;23.35;;;;;;;;;;7374866;19;20662;-76
2022/01/26 01:00:01;;;;;;;51.15;26.58;;;;;;;;;;7377964;19;20142;-75
2022/01/26 01:02:32;;;;;;;48.47;24.17;;;;;;;;;;7368438;19;20756;-75
2022/01/26 01:05:07;;;;;;;45.38;21.90;;;;;;;;;;7376371;19;20564;-75
2022/01/26 01:07:39;;;;;;;52.13;24.90;;;;;;;;;;7378954;19;20693;-75
2022/01/26 01:10:12;;;;;;;56.40;25.48;;;;;;;;;;7371071;19;20132;-76
2022/01/26 01:12:45;;;;;;;52.97;25.80;;;;;;;;;;7374108;19;20135;-72
2022/01/26 01:15:15;;;;;;;56.65;26.65;;;;;;;;;;7377837;19;20133;-76
2022/01/26 01:17:49;;;;;;;49.38;24.25;;;;;;;;;;7371998;19;20164;-75
2022/01/26 01:20:36;;;;;;;50.80;24.25;;;;;;;;;;7374084;19;20924;-74
2022/01/26 01:28:49;;;;;;;51.28;24.23;;;;;;;;;;7374714;19;20139;-76
2022/01/26 01:31:30;;;;;;;42.88;22.17;;;;;;;;;;7376599;19;20148;-74
2022/01/26 01:33:59;;;;;;;47.92;22.40;;;;;;;;;;7373839;19;20234;-74
2022/01/26 01:36:32;;;;;;;49.38;23.35;;;;;;;;;;7378397;19;20682;-75
2022/01/26 01:39:02;;;;;;;48.58;21.70;;;;;;;;;;7377052;19;20237;-75
2022/01/26 01:41:32;;;;;;;50.22;23.42;;;;;;;;;;7380023;19;20124;-74
2022/01/26 01:44:04;;;;;;;54.20;22.55;;;;;;;;;;7378863;19;20144;-74
2022/01/26 01:46:34;;;;;;;47.45;23.58;;;;;;;;;;7374439;19;20610;-75
2022/01/26 01:49:04;;;;;;;46.60;22.15;;;;;;;;;;7376614;19;20712;-75
2022/01/26 01:51:39;;;;;;;45.15;21.58;;;;;;;;;;7378945;19;20864;-74
2022/01/26 01:54:15;;;;;;;50.38;22.77;;;;;;;;;;7377940;19;20518;-73
2022/01/26 01:56:45;;;;;;;47.80;23.50;;;;;;;;;;7377539;19;20139;-74
2022/01/26 01:59:17;;;;;;;45.75;21.95;;;;;;;;;;7376969;19;20139;-74
2022/01/26 02:01:50;;;;;;;46.58;22.00;;;;;;;;;;7361448;19;21308;-73
2022/01/26 02:04:19;;;;;;;46.15;21.42;;;;;;;;;;7376596;19;20144;-73
2022/01/26 02:06:49;;;;;;;41.65;19.30;;;;;;;;;;7381189;19;20150;-73
2022/01/26 02:09:21;;;;;;;45.88;21.20;;;;;;;;;;7378892;19;20143;-73
2022/01/26 02:11:53;;;;;;;44.40;20.48;;;;;;;;;;7379564;19;20866;-74
2022/01/26 02:14:30;;;;;;;42.40;20.38;;;;;;;;;;7375895;19;20132;-75
2022/01/26 02:17:13;;;;;;;39.60;18.88;;;;;;;;;;7375169;19;20132;-73
2022/01/26 02:20:06;;;;;;;39.80;18.90;;;;;;;;;;7374849;19;20183;-74
2022/01/26 02:55:39;;;;;;;33.80;17.40;;;;;;;;;;7361786;19;20186;-75
2022/01/26 03:01:01;;;;;;;31.27;16.13;;;;;;;;;;7364851;19;20151;-75
2022/01/26 03:03:36;;;;;;;32.72;16.33;;;;;;;;;;7375331;19;20139;-75
2022/01/26 03:06:10;;;;;;;31.55;16.90;;;;;;;;;;7373632;19;20956;-74
2022/01/26 03:08:44;;;;;;;30.23;17.63;;;;;;;;;;7376655;19;20602;-74
2022/01/26 03:11:16;;;;;;;30.45;15.55;;;;;;;;;;7368070;19;20242;-73
2022/01/26 03:13:51;;;;;;;31.88;15.88;;;;;;;;;;7372181;19;20135;-74
2022/01/26 03:16:29;;;;;;;29.27;14.80;;;;;;;;;;7373052;19;20748;-74
2022/01/26 03:19:14;;;;;;;28.05;15.07;;;;;;;;;;7372870;19;20902;-74
2022/01/26 03:21:52;;;;;;;29.92;16.73;;;;;;;;;;7374371;19;20141;-74
2022/01/26 03:30:00;;;;;;;28.55;16.23;;;;;;;;;;7370008;19;20630;-75
2022/01/26 03:35:30;;;;;;;29.05;14.60;;;;;;;;;;7368790;19;20154;-75
2022/01/26 03:38:00;;;;;;;32.20;15.65;;;;;;;;;;7373866;19;20135;-76
2022/01/26 03:40:35;;;;;;;26.33;13.90;;;;;;;;;;7368937;19;20154;-75
2022/01/26 03:43:08;;;;;;;28.05;12.68;;;;;;;;;;7374607;19;20740;-74
2022/01/26 03:45:37;;;;;;;23.33;12.27;;;;;;;;;;7371623;19;20169;-75
2022/01/26 03:48:07;;;;;;;31.83;15.20;;;;;;;;;;7369114;19;20166;-75
2022/01/26 03:50:37;;;;;;;27.60;13.32;;;;;;;;;;7373148;19;20812;-75
2022/01/26 03:53:07;;;;;;;28.40;13.65;;;;;;;;;;7368174;19;20145;-75
2022/01/26 03:55:39;;;;;;;30.58;13.60;;;;;;;;;;7373449;19;20717;-75
2022/01/26 03:58:11;;;;;;;32.78;15.00;;;;;;;;;;7362904;19;20149;-76
2022/01/26 04:00:41;;;;;;;31.70;15.13;;;;;;;;;;7357532;19;20186;-76
2022/01/26 04:03:12;;;;;;;32.28;16.02;;;;;;;;;;7364203;19;20139;-75
2022/01/26 04:05:44;;;;;;;30.23;15.02;;;;;;;;;;7381251;19;20158;-75
2022/01/26 04:08:19;;;;;;;30.30;13.55;;;;;;;;;;7374858;19;20481;-75
2022/01/26 04:10:59;;;;;;;37.22;16.15;;;;;;;;;;7379482;19;20133;-75
2022/01/26 04:13:32;;;;;;;31.08;14.63;;;;;;;;;;7376309;19;20140;-75
2022/01/26 04:16:02;;;;;;;30.88;14.45;;;;;;;;;;7376504;19;20170;-76
2022/01/26 04:18:35;;;;;;;25.92;14.35;;;;;;;;;;7379933;19;20150;-75
2022/01/26 04:21:12;;;;;;;33.03;15.38;;;;;;;;;;7375539;19;21338;-75
2022/01/26 04:23:48;;;;;;;31.88;14.18;;;;;;;;;;7375069;19;20163;-74
2022/01/26 04:26:21;;;;;;;29.73;14.77;;;;;;;;;;7374116;19;20150;-74
2022/01/26 04:29:00;;;;;;;36.95;16.33;;;;;;;;;;7378204;19;20135;-75
2022/01/26 04:31:30;;;;;;;35.03;15.30;;;;;;;;;;7373563;19;20145;-75
2022/01/26 04:33:59;;;;;;;34.47;15.35;;;;;;;;;;7378306;19;20178;-78
2022/01/26 04:36:34;;;;;;;32.30;15.18;;;;;;;;;;7374319;19;20404;-74
2022/01/26 04:39:08;;;;;;;35.85;15.25;;;;;;;;;;7375964;19;20139;-74
2022/01/26 04:41:42;;;;;;;32.75;15.15;;;;;;;;;;7373381;19;20613;-73
2022/01/26 04:44:20;;;;;;;35.30;14.70;;;;;;;;;;7376805;19;20156;-74
2022/01/26 04:46:50;;;;;;;32.35;15.15;;;;;;;;;;7376825;19;20151;-75
2022/01/26 04:49:20;;;;;;;30.33;15.68;;;;;;;;;;7378892;19;20139;-75
2022/01/26 04:51:50;;;;;;;36.25;15.18;;;;;;;;;;7377011;19;20638;-75
2022/01/26 04:54:20;;;;;;;37.92;16.00;;;;;;;;;;7363106;19;20124;-76
2022/01/26 04:56:50;;;;;;;31.83;15.68;;;;;;;;;;7379876;19;20138;-75
2022/01/26 04:59:22;;;;;;;34.38;16.27;;;;;;;;;;7378806;19;20139;-76
2022/01/26 05:01:52;;;;;;;32.88;15.00;;;;;;;;;;7352484;19;20159;-74
2022/01/26 05:04:21;;;;;;;41.35;19.90;;;;;;;;;;7366380;19;20146;-77
2022/01/26 05:06:51;;;;;;;36.17;16.45;;;;;;;;;;7370578;19;20177;-75
2022/01/26 05:09:23;;;;;;;36.13;16.30;;;;;;;;;;7368295;19;20147;-74
2022/01/26 05:11:54;;;;;;;34.97;15.95;;;;;;;;;;7368318;19;21119;-76
2022/01/26 05:14:30;;;;;;;37.80;15.93;;;;;;;;;;7369484;19;20143;-76
2022/01/26 05:17:02;;;;;;;37.25;15.98;;;;;;;;;;7364918;19;20123;-77
2022/01/26 05:19:32;;;;;;;36.00;16.02;;;;;;;;;;7370607;19;20148;-76
2022/01/26 05:22:01;;;;;;;42.58;16.95;;;;;;;;;;7364786;19;20178;-77
2022/01/26 05:24:31;;;;;;;38.63;15.90;;;;;;;;;;7376699;19;20143;-77
2022/01/26 05:27:01;;;;;;;39.50;17.30;;;;;;;;;;7368201;19;20139;-79
2022/01/26 05:29:33;;;;;;;37.17;17.15;;;;;;;;;;7378069;19;20132;-78
2022/01/26 05:32:03;;;;;;;31.23;15.90;;;;;;;;;;7369252;19;20135;-77
2022/01/26 05:34:33;;;;;;;34.50;16.02;;;;;;;;;;7372302;19;20187;-77
2022/01/26 05:37:02;;;;;;;35.55;17.75;;;;;;;;;;7375230;19;20139;-77
2022/01/26 05:39:33;;;;;;;31.52;16.15;;;;;;;;;;7359797;19;20136;-76
2022/01/26 05:42:06;;;;;;;31.48;15.60;;;;;;;;;;7360496;19;20145;-75
2022/01/26 05:44:38;;;;;;;40.28;16.13;;;;;;;;;;7349988;19;20142;-75
2022/01/26 05:47:14;;;;;;;38.92;17.77;;;;;;;;;;7368364;19;20138;-76
2022/01/26 05:49:43;;;;;;;32.63;16.27;;;;;;;;;;7355167;19;20477;-75
2022/01/26 05:52:13;;;;;;;38.30;16.75;;;;;;;;;;7367250;19;20636;-75
2022/01/26 05:54:43;;;;;;;38.78;15.80;;;;;;;;;;7377239;19;20147;-75
2022/01/26 05:57:13;;;;;;;42.33;18.35;;;;;;;;;;7378999;19;20916;-75
2022/01/26 05:59:45;;;;;;;37.58;16.25;;;;;;;;;;7370454;19;20136;-75
2022/01/26 06:02:17;;;;;;;31.10;13.57;;;;;;;;;;7360054;19;20634;-74
2022/01/26 06:04:47;;;;;;;37.88;16.77;;;;;;;;;;7373262;19;20131;-75
2022/01/26 06:07:16;;;;;;;40.90;19.08;;;;;;;;;;7374934;19;20134;-76
2022/01/26 06:09:49;;;;;;;37.22;15.85;;;;;;;;;;7373511;19;20128;-75
2022/01/26 06:12:18;;;;;;;36.05;15.90;;;;;;;;;;7377906;19;20120;-75
2022/01/26 06:14:54;;;;;;;47.53;20.90;;;;;;;;;;7374633;19;20127;-73
2022/01/26 06:17:23;;;;;;;46.53;20.48;;;;;;;;;;7370942;19;20154;-73
2022/01/26 06:19:53;;;;;;;43.50;19.92;;;;;;;;;;7368583;19;20687;-75
2022/01/26 06:22:23;;;;;;;47.35;22.70;;;;;;;;;;7371282;19;20150;-76
2022/01/26 06:24:54;;;;;;;38.05;16.00;;;;;;;;;;7370411;19;20128;-76
2022/01/26 06:27:24;;;;;;;41.42;17.08;;;;;;;;;;7376759;19;21505;-74
2022/01/26 06:29:56;;;;;;;38.10;16.70;;;;;;;;;;7368868;19;20219;-82
2022/01/26 06:32:26;;;;;;;42.30;17.08;;;;;;;;;;7369837;19;20641;-80
2022/01/26 06:34:55;;;;;;;35.00;15.00;;;;;;;;;;7359661;19;20150;-74
2022/01/26 06:37:25;;;;;;;38.70;17.40;;;;;;;;;;7365354;19;20132;-72
2022/01/26 06:39:55;;;;;;;34.05;15.82;;;;;;;;;;7356824;19;20148;-74
2022/01/26 06:42:32;;;;;;;39.10;17.02;;;;;;;;;;7355257;19;20798;-77
2022/01/26 06:45:16;;;;;;;39.13;16.80;;;;;;;;;;7363676;19;20146;-76
2022/01/26 06:48:24;;;;;;;31.92;15.02;;;;;;;;;;7373343;19;20647;-77
2022/01/26 06:50:51;;;;;;;37.88;16.02;;;;;;;;;;7373976;19;20147;-78
2022/01/26 06:53:24;;;;;;;26.70;14.98;;;;;;;;;;7361377;19;20788;-76
2022/01/26 06:55:54;;;;;;;44.33;16.60;;;;;;;;;;7372497;19;20142;-77
2022/01/26 06:58:26;;;;;;;36.28;16.02;;;;;;;;;;7371564;19;20132;-77
2022/01/26 07:00:58;;;;;;;36.85;15.10;;;;;;;;;;7367591;19;20174;-78
2022/01/26 07:03:28;;;;;;;35.15;16.85;;;;;;;;;;7373639;19;20135;-78
2022/01/26 07:05:57;;;;;;;38.38;14.95;;;;;;;;;;7373951;19;20143;-78
2022/01/26 07:08:27;;;;;;;31.55;15.00;;;;;;;;;;7376058;19;20145;-77
2022/01/26 07:10:59;;;;;;;33.33;14.02;;;;;;;;;;7376768;19;20143;-77
2022/01/26 07:13:32;;;;;;;32.40;15.32;;;;;;;;;;7375170;19;20136;-79
2022/01/26 07:21:28;;;;;;;35.33;16.50;;;;;;;;;;7378494;19;20176;-77
2022/01/26 07:23:59;;;;;;;37.30;16.52;;;;;;;;;;7370164;19;20167;-78
2022/01/26 07:26:30;;;;;;;32.30;16.60;;;;;;;;;;7376980;19;20594;-78
2022/01/26 07:29:05;;;;;;;32.85;15.85;;;;;;;;;;7375803;19;20473;-78
2022/01/26 07:31:42;;;;;;;29.10;14.93;;;;;;;;;;7373351;19;20145;-78
2022/01/26 07:34:13;;;;;;;34.78;16.85;;;;;;;;;;7375562;19;20154;-78
2022/01/26 07:36:44;;;;;;;31.92;15.68;;;;;;;;;;7372371;19;20124;-77
2022/01/26 07:39:17;;;;;;;35.33;15.85;;;;;;;;;;7376440;19;20134;-78
2022/01/26 07:41:47;;;;;;;28.30;14.77;;;;;;;;;;7375420;19;20147;-77
2022/01/26 07:44:16;;;;;;;31.63;16.65;;;;;;;;;;7369000;19;20139;-77
2022/01/26 07:46:49;;;;;;;30.58;15.90;;;;;;;;;;7374073;19;20676;-77
2022/01/26 07:49:20;;;;;;;31.25;14.13;;;;;;;;;;7366921;19;20126;-77
2022/01/26 07:51:51;;;;;;;32.67;14.90;;;;;;;;;;7375379;19;20127;-78
2022/01/26 07:54:22;;;;;;;31.23;15.27;;;;;;;;;;7371284;19;20136;-78
2022/01/26 07:56:51;;;;;;;28.80;14.27;;;;;;;;;;7376068;19;20142;-77
2022/01/26 07:59:21;;;;;;;29.13;15.38;;;;;;;;;;7377275;19;20171;-78
2022/01/26 08:01:53;;;;;;;30.23;14.70;;;;;;;;;;7365866;19;20174;-78
2022/01/26 08:04:23;;;;;;;26.13;14.60;;;;;;;;;;7372948;19;20140;-77
2022/01/26 08:06:52;;;;;;;29.02;14.50;;;;;;;;;;7373989;19;20144;-77
2022/01/26 08:09:22;;;;;;;27.10;13.00;;;;;;;;;;7372291;19;20151;-77
2022/01/26 08:11:52;;;;;;;35.38;17.27;;;;;;;;;;7372146;19;20979;-78
2022/01/26 08:14:21;;;;;;;31.58;16.20;;;;;;;;;;7369553;19;20576;-79
2022/01/26 08:16:53;;;;;;;27.15;14.23;;;;;;;;;;7371137;19;20127;-78
2022/01/26 08:19:23;;;;;;;31.35;14.73;;;;;;;;;;7370385;19;20495;-78
2022/01/26 08:21:59;;;;;;;31.15;14.82;;;;;;;;;;7371633;19;20120;-78
2022/01/26 08:24:29;;;;;;;34.65;15.80;;;;;;;;;;7371618;19;20618;-78
2022/01/26 08:27:02;;;;;;;30.83;15.10;;;;;;;;;;7373930;19;20151;-77
2022/01/26 08:29:40;;;;;;;33.80;15.25;;;;;;;;;;7374462;19;20132;-79
2022/01/26 08:32:12;;;;;;;35.65;15.38;;;;;;;;;;7375158;19;20131;-78
2022/01/26 08:34:42;;;;;;;35.00;16.65;;;;;;;;;;7375426;19;20136;-78
2022/01/26 08:37:12;;;;;;;37.70;17.55;;;;;;;;;;7364921;19;20127;-79
2022/01/26 08:39:42;;;;;;;33.35;16.95;;;;;;;;;;7376693;19;20821;-79
2022/01/26 08:42:11;;;;;;;35.70;16.92;;;;;;;;;;7376822;19;20553;-78
2022/01/26 08:44:41;;;;;;;33.03;16.40;;;;;;;;;;7374883;19;20634;-79
2022/01/26 08:47:13;;;;;;;33.92;15.93;;;;;;;;;;7379770;19;20642;-80
2022/01/26 08:49:45;;;;;;;35.13;16.02;;;;;;;;;;7380928;19;20610;-79
2022/01/26 08:52:15;;;;;;;40.92;16.20;;;;;;;;;;7380020;19;20127;-77
2022/01/26 08:54:45;;;;;;;32.53;16.33;;;;;;;;;;7387048;19;20147;-78
2022/01/26 08:57:14;;;;;;;36.50;15.88;;;;;;;;;;7384616;19;20428;-78
2022/01/26 08:59:46;;;;;;;34.70;17.15;;;;;;;;;;7388955;19;20642;-78
2022/01/26 09:02:18;;;;;;;33.88;16.70;;;;;;;;;;7382903;19;20159;-78
2022/01/26 09:04:48;;;;;;;30.63;14.50;;;;;;;;;;7383736;19;21006;-77
2022/01/26 09:07:20;;;;;;;32.22;15.02;;;;;;;;;;7389307;19;20595;-78
2022/01/26 09:09:50;;;;;;;35.08;17.35;;;;;;;;;;7387980;19;20598;-78
2022/01/26 09:12:22;;;;;;;33.03;15.68;;;;;;;;;;7387310;19;20124;-78
2022/01/26 09:14:52;;;;;;;40.53;16.42;;;;;;;;;;7388455;19;20247;-78
2022/01/26 09:17:27;;;;;;;39.67;17.10;;;;;;;;;;7385385;19;20583;-77
2022/01/26 09:19:59;;;;;;;35.88;17.27;;;;;;;;;;7385867;19;20147;-78
2022/01/26 09:22:29;;;;;;;38.97;16.38;;;;;;;;;;7384423;19;20706;-79
2022/01/26 09:24:58;;;;;;;38.97;17.52;;;;;;;;;;7386305;19;20150;-78
2022/01/26 09:27:28;;;;;;;32.50;16.13;;;;;;;;;;7383825;19;20142;-78
2022/01/26 09:30:00;;;;;;;34.63;15.75;;;;;;;;;;7387035;19;20229;-78
2022/01/26 09:32:33;;;;;;;32.65;16.15;;;;;;;;;;7384007;19;20139;-77
2022/01/26 09:35:02;;;;;;;34.97;15.20;;;;;;;;;;7385466;19;20510;-79
2022/01/26 09:37:32;;;;;;;38.80;15.80;;;;;;;;;;7376801;19;20483;-77
2022/01/26 09:40:02;;;;;;;32.83;15.85;;;;;;;;;;7381079;19;20132;-79
2022/01/26 09:42:32;;;;;;;36.13;15.85;;;;;;;;;;7374005;19;20143;-78
2022/01/26 09:45:02;;;;;;;29.95;13.85;;;;;;;;;;7379646;19;20550;-78
2022/01/26 09:47:34;;;;;;;32.42;15.02;;;;;;;;;;7382517;19;20926;-78
2022/01/26 09:50:07;;;;;;;31.25;15.77;;;;;;;;;;7383450;19;20135;-79
2022/01/26 09:52:44;;;;;;;32.53;15.73;;;;;;;;;;7380458;19;20590;-77
2022/01/26 09:55:16;;;;;;;31.65;15.85;;;;;;;;;;7382386;19;20177;-77
2022/01/26 09:57:45;;;;;;;32.40;16.75;;;;;;;;;;7375288;19;20838;-79
2022/01/26 10:00:16;;;;;;;33.60;14.93;;;;;;;;;;7378158;19;20127;-76
2022/01/26 10:02:58;;;;;;;33.83;15.55;;;;;;;;;;7379976;19;20180;-77
2022/01/26 10:05:28;;;;;;;30.90;15.07;;;;;;;;;;7377976;19;20135;-77
2022/01/26 10:08:09;;;;;;;34.50;14.93;;;;;;;;;;7380948;19;20570;-78
2022/01/26 10:16:17;;;;;;;31.20;14.60;;;;;;;;;;7381646;19;20143;-78
2022/01/26 10:18:52;;;;;;;38.15;17.65;;;;;;;;;;7378973;19;20159;-77
2022/01/26 10:21:23;;;;;;;37.97;16.85;;;;;;;;;;7381275;19;20189;-78
2022/01/26 10:23:54;;;;;;;31.10;14.43;;;;;;;;;;7379863;19;20134;-77
2022/01/26 10:26:24;;;;;;;31.98;14.77;;;;;;;;;;7380472;19;20693;-78
2022/01/26 10:28:56;;;;;;;42.28;16.05;;;;;;;;;;7381489;19;20135;-78
2022/01/26 10:31:26;;;;;;;30.98;14.35;;;;;;;;;;7381797;19;20625;-78
2022/01/26 10:34:00;;;;;;;28.08;14.52;;;;;;;;;;7378325;19;20510;-78
2022/01/26 10:36:37;;;;;;;53.45;16.67;;;;;;;;;;7380633;19;20606;-78
2022/01/26 10:39:09;;;;;;;52.38;17.75;;;;;;;;;;7380585;19;20147;-77
2022/01/26 10:41:40;;;;;;;36.90;15.80;;;;;;;;;;7379243;19;20140;-78
2022/01/26 10:44:12;;;;;;;28.45;13.63;;;;;;;;;;7381663;19;20215;-78
2022/01/26 10:46:42;;;;;;;27.45;13.80;;;;;;;;;;7382266;19;20140;-78
2022/01/26 10:49:30;;;;;;;30.40;13.88;;;;;;;;;;7382518;19;20155;-79
2022/01/26 10:52:03;;;;;;;24.73;11.88;;;;;;;;;;7386304;19;20131;-80
2022/01/26 10:54:39;;;;;;;26.48;13.70;;;;;;;;;;7386820;19;20178;-79
2022/01/26 10:57:13;;;;;;;32.60;16.10;;;;;;;;;;7378502;19;20182;-79
2022/01/26 10:59:45;;;;;;;28.27;14.13;;;;;;;;;;7384114;19;20131;-78
2022/01/26 11:02:19;;;;;;;24.40;12.23;;;;;;;;;;7380279;19;20151;-77
2022/01/26 11:04:51;;;;;;;28.50;14.25;;;;;;;;;;7383057;19;20127;-80
2022/01/26 11:07:32;;;;;;;27.52;14.10;;;;;;;;;;7384464;19;20137;-79
2022/01/26 11:10:04;;;;;;;25.20;13.13;;;;;;;;;;7387610;19;20137;-78
2022/01/26 11:12:34;;;;;;;28.40;13.02;;;;;;;;;;7388017;19;20506;-78
2022/01/26 11:15:07;;;;;;;28.77;13.88;;;;;;;;;;7391012;19;20143;-79
2022/01/26 11:17:38;;;;;;;31.05;14.90;;;;;;;;;;7389019;19;20146;-79
2022/01/26 11:20:21;;;;;;;33.65;14.25;;;;;;;;;;7389598;19;20262;-79
2022/01/26 11:22:51;;;;;;;28.60;14.35;;;;;;;;;;7388509;19;20139;-79
2022/01/26 11:25:21;;;;;;;32.50;15.07;;;;;;;;;;7382968;19;20136;-79
2022/01/26 11:27:52;;;;;;;32.85;15.93;;;;;;;;;;7390633;19;20132;-77
2022/01/26 11:30:30;;;;;;;34.10;16.30;;;;;;;;;;7390759;19;20127;-79
2022/01/26 11:33:00;;;;;;;30.10;16.33;;;;;;;;;;7388419;19;20131;-79
2022/01/26 11:35:34;;;;;;;35.63;16.85;;;;;;;;;;7387975;19;20124;-78
2022/01/26 11:38:15;;;;;;;37.65;16.05;;;;;;;;;;7384271;19;20197;-79
2022/01/26 11:46:23;;;;;;;32.60;16.85;;;;;;;;;;7383094;19;20614;-78
2022/01/26 11:49:01;;;;;;;40.45;18.10;;;;;;;;;;7381972;19;20139;-77
2022/01/26 11:51:44;;;;;;;36.85;18.20;;;;;;;;;;7383346;19;20159;-78
2022/01/26 11:54:14;;;;;;;33.70;16.48;;;;;;;;;;7381092;19;20732;-78
2022/01/26 11:57:00;;;;;;;37.65;17.40;;;;;;;;;;7378272;19;20692;-78
2022/01/26 11:59:34;;;;;;;37.75;17.88;;;;;;;;;;7378653;19;20130;-77
2022/01/26 12:02:09;;;;;;;31.33;15.52;;;;;;;;;;7374117;19;20548;-78
2022/01/26 12:04:38;;;;;;;35.72;16.55;;;;;;;;;;7379837;19;20673;-79
2022/01/26 12:07:21;;;;;;;41.53;16.52;;;;;;;;;;7379020;19;20744;-78
2022/01/26 12:09:55;;;;;;;36.20;16.25;;;;;;;;;;7379170;19;20138;-77
2022/01/26 12:12:26;;;;;;;35.22;15.50;;;;;;;;;;7376847;19;21055;-77
2022/01/26 12:15:07;;;;;;;38.60;16.95;;;;;;;;;;7376624;19;20134;-78
2022/01/26 12:17:41;;;;;;;32.03;16.08;;;;;;;;;;7379134;19;20532;-77
2022/01/26 12:37:05;;;;;;;39.22;16.08;;;;;;;;;;7379238;19;20151;-83
2022/01/26 12:42:37;;;;;;;45.35;16.75;;;;;;;;;;7377842;19;20135;-77
2022/01/26 12:45:07;;;;;;;30.75;13.57;;;;;;;;;;7372684;19;20132;-75
2022/01/26 12:47:37;;;;;;;43.35;17.98;;;;;;;;;;7377597;19;20476;-73
2022/01/26 12:50:07;;;;;;;30.40;14.25;;;;;;;;;;7369958;19;20737;-73
2022/01/26 12:52:37;;;;;;;41.13;15.95;;;;;;;;;;7357158;19;20136;-71
2022/01/26 12:55:10;;;;;;;34.80;15.77;;;;;;;;;;7371059;19;20767;-74
2022/01/26 12:57:45;;;;;;;31.45;14.82;;;;;;;;;;7378617;19;20159;-74
2022/01/26 13:00:16;;;;;;;29.63;15.57;;;;;;;;;;7365388;19;20163;-73
2022/01/26 13:02:46;;;;;;;30.58;13.98;;;;;;;;;;7372488;19;20127;-73
2022/01/26 13:05:16;;;;;;;31.83;14.60;;;;;;;;;;7375088;19;20134;-73
2022/01/26 13:07:46;;;;;;;31.48;14.48;;;;;;;;;;7381867;19;20144;-74
2022/01/26 13:10:20;;;;;;;36.90;16.23;;;;;;;;;;7377519;19;20794;-73
2022/01/26 13:12:49;;;;;;;29.15;15.40;;;;;;;;;;7376514;19;20605;-73
2022/01/26 13:15:23;;;;;;;32.65;14.10;;;;;;;;;;7371351;19;20777;-72
2022/01/26 13:17:58;;;;;;;32.03;14.52;;;;;;;;;;7356898;19;20205;-75
2022/01/26 13:20:44;;;;;;;30.48;14.05;;;;;;;;;;7406145;19;21017;-73
2022/01/26 13:23:28;;;;;;;31.20;14.60;;;;;;;;;;7405190;19;20135;-74
2022/01/26 13:26:15;;;;;;;28.10;13.50;;;;;;;;;;7417903;19;20538;-74
2022/01/26 13:28:59;;;;;;;29.42;13.30;;;;;;;;;;7406381;19;20199;-75
2022/01/26 13:34:37;;;;;;;32.25;14.57;;;;;;;;;;7406127;19;20152;-75
2022/01/26 13:37:27;;;;;;;28.75;16.38;;;;;;;;;;7405726;19;20136;-75
2022/01/26 13:40:11;;;;;;;24.33;13.02;;;;;;;;;;7416677;19;20116;-76
2022/01/26 13:45:55;;;;;;;33.78;16.00;;;;;;;;;;7416834;19;20164;-75
2022/01/26 13:48:57;;;;;;;28.42;14.32;;;;;;;;;;7403990;19;20135;-73
2022/01/26 13:51:37;;;;;;;30.80;15.18;;;;;;;;;;7407859;19;20124;-75
2022/01/26 13:54:30;;;;;;;26.45;13.43;;;;;;;;;;7417730;19;20119;-74
2022/01/26 13:57:13;;;;;;;29.45;13.63;;;;;;;;;;7412197;19;20139;-75
2022/01/26 13:59:52;;;;;;;31.60;14.65;;;;;;;;;;7413984;19;20134;-75
2022/01/26 14:02:23;;;;;;;29.42;12.77;;;;;;;;;;7400790;19;20248;-76
2022/01/26 14:04:53;;;;;;;33.47;13.45;;;;;;;;;;7413943;19;20161;-74
2022/01/26 14:07:22;;;;;;;28.00;13.13;;;;;;;;;;7412789;19;20489;-74
2022/01/26 14:09:52;;;;;;;31.17;14.25;;;;;;;;;;7409435;19;20135;-74
2022/01/26 14:12:27;;;;;;;36.00;15.10;;;;;;;;;;7409773;19;20120;-75
2022/01/26 14:15:00;;;;;;;33.40;13.20;;;;;;;;;;7408351;19;20156;-75
2022/01/26 14:17:39;;;;;;;27.05;11.60;;;;;;;;;;7411300;19;20183;-76
2022/01/26 14:20:40;;;;;;;30.42;12.38;;;;;;;;;;7406865;19;20143;-74
2022/01/26 14:23:30;;;;;;;29.08;13.80;;;;;;;;;;7401010;19;20127;-76
2022/01/26 14:26:00;;;;;;;35.33;12.52;;;;;;;;;;7417410;19;20136;-75
2022/01/26 14:28:34;;;;;;;21.10;11.02;;;;;;;;;;7406392;19;20164;-75
2022/01/26 14:31:29;;;;;;;22.90;11.65;;;;;;;;;;7402273;19;20136;-74
2022/01/26 14:36:49;;;;;;;22.02;10.73;;;;;;;;;;7404559;19;20184;-74
2022/01/26 14:56:00;;;;;;;24.05;11.27;;;;;;;;;;7421234;19;20201;-75
2022/01/26 15:10:03;;;;;;;32.42;13.98;;;;;;;;;;7425356;19;20158;-74
2022/01/26 15:42:38;;;;;;;26.98;12.13;;;;;;;;;;7414156;19;20199;-76
2022/01/26 15:50:44;;;;;;;25.40;11.40;;;;;;;;;;7421915;19;20136;-75
2022/01/26 15:57:15;;;;;;;23.27;11.35;;;;;;;;;;7418590;19;20132;-75
2022/01/26 15:59:06;;;;;;;21.70;10.55;;;;;;;;;;7399445;19;20143;-76
2022/01/26 16:04:30;;;;;;;28.77;11.30;;;;;;;;;;7395698;19;20148;-75
2022/01/26 16:07:12;;;;;;;20.48;10.80;;;;;;;;;;7394874;19;20139;-75
2022/01/26 16:21:04;;;;;;;26.65;11.70;;;;;;;;;;7391934;19;20170;-76
2022/01/26 16:26:44;;;;;;;19.63;10.40;;;;;;;;;;7388670;19;20139;-76
2022/01/26 18:13:49;;;;;;;26.33;13.30;;;;;;;;;;7368552;19;20135;-78
2022/01/26 18:16:22;;;;;;;32.33;12.82;;;;;;;;;;7379517;19;20147;-78
2022/01/26 18:31:48;;;;;;;30.08;13.98;;;;;;;;;;7372003;19;20666;-77
2022/01/26 18:32:53;;;;;;;22.80;12.18;;;;;;;;;;7377083;19;20139;-78
2022/01/26 18:46:21;;;;;;;29.42;15.00;;;;;;;;;;7372688;19;20147;-78
2022/01/26 18:49:18;;;;;;;29.02;14.38;;;;;;;;;;7373785;19;20146;-79
2022/01/26 18:51:52;;;;;;;35.53;15.35;;;;;;;;;;7366150;19;20147;-77
2022/01/26 18:54:28;;;;;;;27.50;14.93;;;;;;;;;;7374841;19;20195;-78
2022/01/26 18:57:04;;;;;;;30.40;13.75;;;;;;;;;;7379074;19;20135;-85
2022/01/26 18:59:34;;;;;;;31.90;14.18;;;;;;;;;;7366338;19;20207;-77
2022/01/26 19:02:04;;;;;;;33.10;12.73;;;;;;;;;;7362990;19;20193;-77
2022/01/26 19:04:37;;;;;;;30.17;13.98;;;;;;;;;;7375679;19;20139;-78
2022/01/26 19:07:10;;;;;;;31.38;15.35;;;;;;;;;;7372283;19;20140;-77
2022/01/26 19:09:45;;;;;;;29.33;13.52;;;;;;;;;;7372508;19;20136;-77
2022/01/26 19:12:18;;;;;;;25.50;14.48;;;;;;;;;;7377010;19;20199;-77
2022/01/26 19:14:53;;;;;;;32.60;13.65;;;;;;;;;;7373822;19;20616;-77
2022/01/26 19:17:27;;;;;;;32.75;14.45;;;;;;;;;;7367831;19;20123;-77
2022/01/26 19:20:10;;;;;;;26.35;11.40;;;;;;;;;;7372333;19;20905;-78
2022/01/26 19:25:29;;;;;;;27.98;12.43;;;;;;;;;;7373772;19;20215;-77
2022/01/26 19:28:09;;;;;;;32.63;15.00;;;;;;;;;;7375650;19;20143;-77
2022/01/26 19:47:19;;;;;;;26.98;13.90;;;;;;;;;;7373699;19;20652;-78
2022/01/26 19:52:33;;;;;;;34.33;12.60;;;;;;;;;;7368764;19;20496;-77
2022/01/26 19:55:03;;;;;;;27.63;13.35;;;;;;;;;;7373718;19;20155;-78
2022/01/26 19:57:35;;;;;;;28.92;11.93;;;;;;;;;;7380599;19;20632;-78
2022/01/26 20:00:08;;;;;;;35.15;15.30;;;;;;;;;;7372395;19;20146;-77
2022/01/26 20:02:42;;;;;;;28.45;13.00;;;;;;;;;;7361417;19;20139;-78
2022/01/26 20:05:15;;;;;;;30.55;12.85;;;;;;;;;;7373279;19;20718;-77
2022/01/26 20:07:46;;;;;;;27.98;11.70;;;;;;;;;;7370805;19;20154;-77
2022/01/26 20:10:23;;;;;;;28.35;13.63;;;;;;;;;;7374091;19;20230;-77
2022/01/26 20:13:01;;;;;;;25.70;12.60;;;;;;;;;;7368270;19;20142;-77
2022/01/26 20:15:31;;;;;;;34.78;15.13;;;;;;;;;;7370842;19;20134;-77
2022/01/26 20:18:01;;;;;;;28.25;12.10;;;;;;;;;;7373637;19;20638;-77
2022/01/26 20:20:30;;;;;;;30.83;12.90;;;;;;;;;;7362307;19;20547;-77
2022/01/26 20:23:00;;;;;;;28.75;12.98;;;;;;;;;;7372383;19;21232;-78
2022/01/26 20:25:31;;;;;;;29.40;12.82;;;;;;;;;;7376552;19;20660;-76
2022/01/26 20:28:07;;;;;;;31.98;12.82;;;;;;;;;;7373858;19;20140;-77
2022/01/26 20:30:41;;;;;;;24.08;11.85;;;;;;;;;;7376622;19;20152;-75
2022/01/26 20:33:11;;;;;;;31.23;13.70;;;;;;;;;;7354607;19;20135;-82
2022/01/26 20:35:42;;;;;;;26.30;13.27;;;;;;;;;;7365492;19;20148;-82